Pagrindinis puslapis
METAR-TAF:

METAR-TAF

Oro uostai :

Fayette Regional Air Center

La Grange, Teksasas, Jungtinės Amerikos Valstijos

platuma: 29-54-29N, ilguma: 096-57-00W, Aukštis: 99 m

Dabartinis oras

Ataskaita buvo paskelbta 24 minutes, ne 04:35 UTC
Ramus vėjas
Temperatūra 21°C
Drėgmė 100%
Slėgis 1013 hPa
Matomumas: 16.1 km
Giedras dangus

METAR: K3T5 270435Z AUTO 00000KT 10SM CLR 21/21 A2990 RMK AO2 T02140214

Laikas: 23:59 (04:59 UTC)


TAF: trūkstamas

Orai ataskaitas ir orų prognozės (METAR, TAF).

turimą stotys yra geltonos ir raudonos taškus žemėlapyje.

Perkelti pele per norėdami pamatyti stoties vardą.

Tada spustelėkite, norėdami matyti oro stebėjimo ir prognozės.

Norėdami pakeisti žemėlapį: spustelėkite ant žalios mygtukų su juodo kryžiaus žemyn,; žalią mygtuką su brūkšneliu, jei norite nutolinti; arba žalių rodyklių gretimoms žemėlapius.


METAR-TAF: